createdAt,value
2023-05-05T19:16:24.544Z,71.54
2023-05-05T19:17:24.592Z,58.49
2023-05-05T19:18:24.540Z,52.05
2023-05-05T19:19:24.502Z,51.08
2023-05-05T19:20:24.527Z,51.08
2023-05-05T19:21:24.512Z,55.43
2023-05-05T19:22:24.538Z,48.82
2023-05-05T19:23:24.469Z,52.85
2023-05-05T19:24:24.489Z,50.60
2023-05-05T19:25:24.469Z,51.40
2023-05-05T19:26:24.473Z,62.52
2023-05-05T19:27:24.484Z,53.17
2023-05-05T19:28:24.440Z,48.18
2023-05-05T19:29:24.454Z,50.43
2023-05-05T19:30:24.459Z,48.98
2023-05-05T19:31:24.579Z,47.86
2023-05-05T19:32:24.467Z,49.15
2023-05-05T19:33:24.453Z,50.76
2023-05-05T19:34:24.404Z,47.53
2023-05-05T19:35:24.411Z,48.18
2023-05-05T19:36:24.397Z,49.31
2023-05-05T19:37:24.439Z,51.72
2023-05-05T19:38:24.416Z,53.66
2023-05-05T19:39:24.349Z,50.43
2023-05-05T19:40:24.383Z,49.31
2023-05-05T19:41:24.365Z,48.18
2023-05-05T19:42:24.337Z,53.33
2023-05-05T19:43:24.384Z,49.15
2023-05-05T19:44:24.896Z,46.41
2023-05-05T19:45:24.324Z,46.89
2023-05-05T19:46:24.462Z,48.50
2023-05-05T19:47:24.455Z,46.89
2023-05-05T19:48:24.839Z,49.31
2023-05-05T19:49:24.317Z,50.27
2023-05-05T19:50:24.342Z,49.31
2023-05-05T19:51:24.318Z,46.73
2023-05-05T19:52:24.264Z,58.33
2023-05-05T19:53:24.299Z,58.49
2023-05-05T19:54:24.856Z,53.82
2023-05-05T19:55:28.986Z,59.46
2023-05-05T19:56:25.380Z,60.59
2023-05-05T19:57:24.927Z,59.62
2023-05-05T19:58:24.794Z,60.75
2023-05-05T19:59:24.237Z,60.91
2023-05-05T20:00:24.213Z,60.91
2023-05-05T20:01:24.293Z,60.91
2023-05-05T20:02:24.324Z,59.94
2023-05-05T20:03:24.338Z,60.59
2023-05-05T20:04:24.248Z,61.07
2023-05-05T20:05:24.200Z,62.52
2023-05-05T20:06:24.202Z,63.16
2023-05-05T20:07:24.155Z,62.84
2023-05-05T20:08:24.225Z,59.62
2023-05-05T20:09:24.202Z,60.42
2023-05-05T20:10:24.253Z,61.39
2023-05-05T20:11:24.160Z,61.23
2023-05-05T20:12:24.193Z,60.91
2023-05-05T20:13:24.192Z,62.52
2023-05-05T20:14:24.142Z,62.52
2023-05-05T20:15:24.160Z,61.71
2023-05-05T20:16:24.298Z,62.52
2023-05-05T20:17:24.137Z,67.03
2023-05-05T20:18:24.190Z,58.17
2023-05-05T20:19:24.150Z,57.20
2023-05-05T20:20:24.105Z,59.30
2023-05-05T20:21:24.106Z,58.17
2023-05-05T20:22:24.107Z,60.59
2023-05-05T20:23:24.171Z,61.07
2023-05-05T20:24:24.089Z,57.20
2023-05-05T20:25:24.212Z,55.75
2023-05-05T20:26:24.047Z,53.33
2023-05-05T20:27:25.895Z,52.53
2023-05-05T20:28:24.091Z,56.72
2023-05-05T20:29:24.033Z,57.69
2023-05-05T20:30:24.007Z,54.95
2023-05-05T20:31:24.049Z,55.43
2023-05-05T20:32:24.041Z,53.01
2023-05-05T20:33:23.977Z,52.37
2023-05-05T20:34:24.019Z,51.40
2023-05-05T20:35:24.072Z,53.82
2023-05-05T20:36:23.956Z,48.98
2023-05-05T20:37:23.997Z,47.53
2023-05-05T20:38:23.965Z,49.31
2023-05-05T20:39:23.948Z,48.82
2023-05-05T20:40:23.943Z,53.17
2023-05-05T20:41:23.944Z,48.82
2023-05-05T20:42:23.969Z,47.53
2023-05-05T20:43:23.956Z,45.60
2023-05-05T20:44:23.918Z,46.41
2023-05-05T20:45:23.923Z,63.00
2023-05-05T20:46:23.962Z,44.47
2023-05-05T20:47:23.998Z,45.44
2023-05-05T20:48:23.930Z,44.47
2023-05-05T20:49:23.929Z,44.79
2023-05-05T20:50:23.916Z,43.83
2023-05-05T20:51:23.974Z,46.89
2023-05-05T20:52:23.935Z,44.79
2023-05-05T20:53:23.861Z,44.79
2023-05-05T20:54:23.843Z,45.44
2023-05-05T20:55:23.909Z,43.83
2023-05-05T20:56:23.942Z,45.60
2023-05-05T20:57:23.849Z,47.05
2023-05-05T20:58:23.898Z,44.47
2023-05-05T20:59:23.841Z,44.31
2023-05-05T21:00:23.872Z,44.31
2023-05-05T21:01:23.881Z,43.51
2023-05-05T21:02:23.883Z,43.18
2023-05-05T21:03:23.812Z,44.79
2023-05-05T21:04:23.789Z,46.08
2023-05-05T21:05:23.807Z,45.28
2023-05-05T21:06:23.791Z,45.92
2023-05-05T21:07:23.824Z,44.79
2023-05-05T21:08:23.783Z,45.44
2023-05-05T21:09:23.796Z,45.12
2023-05-05T21:10:23.804Z,44.47
2023-05-05T21:11:23.737Z,45.76
2023-05-05T21:12:23.836Z,43.51
2023-05-05T21:13:23.782Z,44.15
2023-05-05T21:14:23.796Z,43.67
2023-05-05T21:15:23.774Z,44.15
2023-05-05T21:16:23.790Z,43.51
2023-05-05T21:17:23.733Z,43.51
2023-05-05T21:18:23.682Z,43.18
2023-05-05T21:19:23.687Z,48.82
2023-05-05T21:20:23.665Z,47.53
2023-05-05T21:21:23.653Z,42.06
2023-05-05T21:22:23.670Z,45.60
2023-05-05T21:23:23.723Z,44.63
2023-05-05T21:24:23.658Z,47.53
2023-05-05T21:25:23.645Z,46.57
2023-05-05T21:26:23.713Z,47.53
2023-05-05T21:27:23.630Z,49.15
2023-05-05T21:28:23.683Z,45.28
2023-05-05T21:29:23.585Z,49.79
2023-05-05T21:30:23.642Z,50.76
2023-05-05T21:31:23.587Z,52.21
2023-05-05T21:32:23.831Z,50.92
2023-05-05T21:33:23.635Z,51.24
2023-05-05T21:34:24.618Z,52.69
2023-05-05T21:35:23.626Z,52.21
2023-05-05T21:36:23.599Z,53.33
2023-05-05T21:37:23.591Z,52.85
2023-05-05T21:38:23.561Z,53.01
2023-05-05T21:39:23.600Z,52.69
2023-05-05T21:40:23.578Z,53.17
2023-05-05T21:41:23.563Z,51.08
2023-05-05T21:42:23.545Z,51.72
2023-05-05T21:43:23.494Z,55.11
2023-05-05T21:44:23.569Z,48.34
2023-05-05T21:45:23.544Z,44.63
2023-05-05T21:46:23.616Z,46.41
2023-05-05T21:47:23.596Z,51.56
2023-05-05T21:48:23.475Z,50.60
2023-05-05T21:49:23.515Z,51.72
2023-05-05T21:50:23.488Z,46.89
2023-05-05T21:51:23.465Z,45.60
2023-05-05T21:52:23.425Z,45.92
2023-05-05T21:53:23.469Z,49.15
2023-05-05T21:54:23.447Z,48.34
2023-05-05T21:55:23.405Z,44.31
2023-05-05T21:56:23.447Z,47.70
2023-05-05T21:57:23.459Z,45.44
2023-05-05T21:58:23.390Z,48.98
2023-05-05T21:59:23.387Z,43.51
2023-05-05T22:00:23.417Z,43.02
2023-05-05T22:01:23.467Z,42.22
2023-05-05T22:02:23.477Z,43.34
2023-05-05T22:03:23.470Z,52.21
2023-05-05T22:04:23.357Z,53.33
2023-05-05T22:05:23.376Z,51.72
2023-05-05T22:06:23.391Z,54.14
2023-05-05T22:07:23.343Z,51.88
2023-05-05T22:08:23.322Z,53.17
2023-05-05T22:09:23.303Z,47.86
2023-05-05T22:10:23.323Z,46.41
2023-05-05T22:11:23.296Z,44.31
2023-05-05T22:12:23.403Z,49.63
2023-05-05T22:13:23.485Z,50.27
2023-05-05T22:14:23.274Z,52.05
2023-05-05T22:15:25.374Z,52.05
2023-05-05T22:16:23.421Z,51.40
2023-05-05T22:17:23.259Z,52.21
2023-05-05T22:18:23.252Z,52.37
2023-05-05T22:19:23.283Z,52.37
2023-05-05T22:20:23.294Z,54.46
2023-05-05T22:21:23.240Z,53.33
2023-05-05T22:22:23.233Z,54.95
2023-05-05T22:23:23.199Z,53.82
2023-05-05T22:24:23.224Z,53.17
2023-05-05T22:25:23.256Z,54.30
2023-05-05T22:26:23.235Z,53.33
2023-05-05T22:27:23.174Z,53.98
2023-05-05T22:28:23.195Z,53.66
2023-05-05T22:29:23.170Z,52.05
2023-05-05T22:30:23.183Z,53.82
2023-05-05T22:31:23.217Z,54.30
2023-05-05T22:32:23.183Z,58.49
2023-05-05T22:33:23.158Z,54.30
2023-05-05T22:34:23.140Z,55.43
2023-05-05T22:35:23.170Z,53.82
2023-05-05T22:36:23.122Z,54.46
2023-05-05T22:37:23.119Z,54.30
2023-05-05T22:38:23.156Z,53.01
2023-05-05T22:39:23.103Z,53.33
2023-05-05T22:40:23.096Z,53.01
2023-05-05T22:41:23.101Z,53.50
2023-05-05T22:42:23.099Z,53.82
2023-05-05T22:43:23.099Z,54.46
2023-05-05T22:44:23.052Z,53.66
2023-05-05T22:45:23.104Z,54.14
2023-05-05T22:46:23.100Z,53.50
2023-05-05T22:47:23.110Z,53.33
2023-05-05T22:48:23.040Z,53.33
2023-05-05T22:49:23.119Z,54.30
2023-05-05T22:50:22.995Z,53.98
2023-05-05T22:51:23.029Z,53.01
2023-05-05T22:52:23.053Z,53.50
2023-05-05T22:53:23.005Z,54.14
2023-05-05T22:54:23.012Z,54.30
2023-05-05T22:55:22.960Z,54.30
2023-05-05T22:56:22.994Z,54.30
2023-05-05T22:57:22.993Z,53.82
2023-05-05T22:58:22.922Z,55.43
2023-05-05T22:59:23.038Z,53.50
2023-05-05T23:00:22.953Z,53.17
2023-05-05T23:01:23.098Z,53.17
2023-05-05T23:02:22.965Z,52.37
2023-05-05T23:03:22.974Z,56.24
2023-05-05T23:04:22.927Z,53.01
2023-05-05T23:05:22.883Z,56.72
2023-05-05T23:06:22.965Z,54.46
2023-05-05T23:07:22.912Z,53.98
2023-05-05T23:08:22.855Z,52.53
2023-05-05T23:09:22.851Z,52.69
2023-05-05T23:10:22.874Z,54.95
2023-05-05T23:11:22.903Z,55.27
2023-05-05T23:12:22.854Z,53.17
2023-05-05T23:13:23.883Z,54.79
2023-05-05T23:14:22.821Z,53.01
2023-05-05T23:15:22.869Z,55.75
2023-05-05T23:16:22.896Z,53.33
2023-05-05T23:17:22.851Z,53.66
2023-05-05T23:18:22.813Z,54.79
2023-05-05T23:19:22.790Z,54.79
2023-05-05T23:20:22.779Z,53.33
2023-05-05T23:21:22.791Z,53.50
2023-05-05T23:22:22.803Z,52.53
2023-05-05T23:23:22.801Z,51.88
2023-05-05T23:24:22.789Z,53.01
2023-05-05T23:25:22.755Z,53.82
2023-05-05T23:26:22.805Z,54.95
2023-05-05T23:27:22.744Z,54.62
2023-05-05T23:28:22.756Z,52.85
2023-05-05T23:29:22.753Z,54.30
2023-05-05T23:30:22.746Z,54.14
2023-05-05T23:31:22.841Z,54.46
2023-05-05T23:32:22.684Z,54.30
2023-05-05T23:33:22.702Z,53.50
2023-05-05T23:34:22.695Z,54.62
2023-05-05T23:35:22.695Z,53.17
2023-05-05T23:36:22.676Z,53.66
2023-05-05T23:37:22.662Z,53.82
2023-05-05T23:38:22.691Z,52.37
2023-05-05T23:39:22.680Z,53.66
2023-05-05T23:40:22.662Z,54.30
2023-05-05T23:41:22.628Z,53.50
2023-05-05T23:42:22.625Z,52.53
2023-05-05T23:43:23.614Z,53.33
2023-05-05T23:44:22.625Z,53.66
2023-05-05T23:45:22.645Z,52.69
2023-05-05T23:46:22.683Z,52.69
2023-05-05T23:47:22.588Z,55.11
2023-05-05T23:48:22.666Z,53.82
2023-05-05T23:49:22.630Z,52.69
2023-05-05T23:50:23.587Z,53.33
2023-05-05T23:51:22.580Z,52.85
2023-05-05T23:52:22.563Z,53.66
2023-05-05T23:53:22.586Z,53.50
2023-05-05T23:54:22.531Z,52.69
2023-05-05T23:55:22.543Z,55.27
2023-05-05T23:56:22.499Z,53.33
2023-05-05T23:57:22.541Z,55.11
2023-05-05T23:58:22.496Z,54.79
2023-05-05T23:59:22.469Z,55.11
